sensor_id;sensor_type;location;lat;lon;timestamp;temperature;humidity
39777;DHT22;25453;48.162;14.510;2022-10-31T00:02:20;13.50;83.00
39777;DHT22;25453;48.162;14.510;2022-10-31T00:04:54;13.50;83.00
39777;DHT22;25453;48.162;14.510;2022-10-31T00:07:22;13.50;83.10
39777;DHT22;25453;48.162;14.510;2022-10-31T00:09:55;13.50;83.10
39777;DHT22;25453;48.162;14.510;2022-10-31T00:12:22;13.50;83.00
39777;DHT22;25453;48.162;14.510;2022-10-31T00:14:56;13.50;83.10
39777;DHT22;25453;48.162;14.510;2022-10-31T00:17:24;13.50;83.20
39777;DHT22;25453;48.162;14.510;2022-10-31T00:19:58;13.50;83.10
39777;DHT22;25453;48.162;14.510;2022-10-31T00:22:25;13.50;83.10
39777;DHT22;25453;48.162;14.510;2022-10-31T00:24:59;13.50;83.00
39777;DHT22;25453;48.162;14.510;2022-10-31T00:27:26;13.50;83.00
39777;DHT22;25453;48.162;14.510;2022-10-31T00:30:00;13.50;83.00
39777;DHT22;25453;48.162;14.510;2022-10-31T00:32:29;13.40;83.00
39777;DHT22;25453;48.162;14.510;2022-10-31T00:35:03;13.40;83.10
39777;DHT22;25453;48.162;14.510;2022-10-31T00:37:31;13.40;83.00
39777;DHT22;25453;48.162;14.510;2022-10-31T00:40:05;13.40;83.10
39777;DHT22;25453;48.162;14.510;2022-10-31T00:42:40;13.40;83.10
39777;DHT22;25453;48.162;14.510;2022-10-31T00:45:14;13.40;83.10
39777;DHT22;25453;48.162;14.510;2022-10-31T00:47:48;13.40;83.10
39777;DHT22;25453;48.162;14.510;2022-10-31T00:50:15;13.40;83.20
39777;DHT22;25453;48.162;14.510;2022-10-31T00:52:43;13.40;83.10
39777;DHT22;25453;48.162;14.510;2022-10-31T00:55:16;13.40;83.20
39777;DHT22;25453;48.162;14.510;2022-10-31T00:57:57;13.40;83.30
39777;DHT22;25453;48.162;14.510;2022-10-31T01:00:31;13.40;83.30
39777;DHT22;25453;48.162;14.510;2022-10-31T01:02:58;13.40;83.30
39777;DHT22;25453;48.162;14.510;2022-10-31T01:05:32;13.40;83.40
39777;DHT22;25453;48.162;14.510;2022-10-31T01:08:00;13.50;83.30
39777;DHT22;25453;48.162;14.510;2022-10-31T01:10:34;13.50;83.20
39777;DHT22;25453;48.162;14.510;2022-10-31T01:13:01;13.50;83.20
39777;DHT22;25453;48.162;14.510;2022-10-31T01:15:35;13.40;83.10
39777;DHT22;25453;48.162;14.510;2022-10-31T01:18:02;13.40;83.10
39777;DHT22;25453;48.162;14.510;2022-10-31T01:20:36;13.40;83.10
39777;DHT22;25453;48.162;14.510;2022-10-31T01:23:03;13.40;83.10
39777;DHT22;25453;48.162;14.510;2022-10-31T01:25:37;13.40;83.10
39777;DHT22;25453;48.162;14.510;2022-10-31T01:28:04;13.30;83.10
39777;DHT22;25453;48.162;14.510;2022-10-31T01:30:38;13.30;83.20
39777;DHT22;25453;48.162;14.510;2022-10-31T01:33:06;13.30;83.20
39777;DHT22;25453;48.162;14.510;2022-10-31T01:35:39;13.30;83.20
39777;DHT22;25453;48.162;14.510;2022-10-31T01:38:06;13.30;83.30
39777;DHT22;25453;48.162;14.510;2022-10-31T01:40:40;13.30;83.40
39777;DHT22;25453;48.162;14.510;2022-10-31T01:43:14;13.30;83.50
39777;DHT22;25453;48.162;14.510;2022-10-31T01:45:53;13.40;83.50
39777;DHT22;25453;48.162;14.510;2022-10-31T01:48:24;13.40;83.40
39777;DHT22;25453;48.162;14.510;2022-10-31T01:51:00;13.40;83.40
39777;DHT22;25453;48.162;14.510;2022-10-31T01:53:36;13.40;83.30
39777;DHT22;25453;48.162;14.510;2022-10-31T01:56:04;13.30;83.20
39777;DHT22;25453;48.162;14.510;2022-10-31T01:58:39;13.30;83.30
39777;DHT22;25453;48.162;14.510;2022-10-31T02:01:15;13.30;83.30
39777;DHT22;25453;48.162;14.510;2022-10-31T02:03:44;13.30;83.20
39777;DHT22;25453;48.162;14.510;2022-10-31T02:06:37;13.30;83.30
39777;DHT22;25453;48.162;14.510;2022-10-31T02:09:07;13.30;83.30
39777;DHT22;25453;48.162;14.510;2022-10-31T02:11:42;13.30;83.30
39777;DHT22;25453;48.162;14.510;2022-10-31T02:14:11;13.30;83.30
39777;DHT22;25453;48.162;14.510;2022-10-31T02:16:45;13.30;83.30
39777;DHT22;25453;48.162;14.510;2022-10-31T02:22:27;13.30;83.30
39777;DHT22;25453;48.162;14.510;2022-10-31T02:28:46;13.30;83.40
39777;DHT22;25453;48.162;14.510;2022-10-31T02:34:19;13.40;83.50
39777;DHT22;25453;48.162;14.510;2022-10-31T02:39:29;13.40;83.50
39777;DHT22;25453;48.162;14.510;2022-10-31T02:47:21;13.40;83.30
39777;DHT22;25453;48.162;14.510;2022-10-31T02:50:00;13.40;83.20
39777;DHT22;25453;48.162;14.510;2022-10-31T02:52:36;13.40;83.30
39777;DHT22;25453;48.162;14.510;2022-10-31T02:58:09;13.30;83.20
39777;DHT22;25453;48.162;14.510;2022-10-31T03:09:38;13.30;83.40
39777;DHT22;25453;48.162;14.510;2022-10-31T03:12:28;13.30;83.50
39777;DHT22;25453;48.162;14.510;2022-10-31T03:17:39;13.30;83.50
39777;DHT22;25453;48.162;14.510;2022-10-31T03:20:10;13.30;83.50
39777;DHT22;25453;48.162;14.510;2022-10-31T03:22:44;13.30;83.60
39777;DHT22;25453;48.162;14.510;2022-10-31T03:25:18;13.30;83.70
39777;DHT22;25453;48.162;14.510;2022-10-31T03:27:46;13.30;83.70
39777;DHT22;25453;48.162;14.510;2022-10-31T03:30:21;13.40;83.50
39777;DHT22;25453;48.162;14.510;2022-10-31T03:32:51;13.40;83.40
39777;DHT22;25453;48.162;14.510;2022-10-31T03:35:27;13.40;83.40
39777;DHT22;25453;48.162;14.510;2022-10-31T03:37:55;13.30;83.30
39777;DHT22;25453;48.162;14.510;2022-10-31T03:40:35;13.30;83.40
39777;DHT22;25453;48.162;14.510;2022-10-31T03:43:07;13.30;83.50
39777;DHT22;25453;48.162;14.510;2022-10-31T03:45:45;13.30;83.50
39777;DHT22;25453;48.162;14.510;2022-10-31T03:48:15;13.30;83.50
39777;DHT22;25453;48.162;14.510;2022-10-31T03:51:21;13.30;83.50
39777;DHT22;25453;48.162;14.510;2022-10-31T03:54:06;13.30;83.50
39777;DHT22;25453;48.162;14.510;2022-10-31T03:57:22;13.30;83.40
39777;DHT22;25453;48.162;14.510;2022-10-31T04:00:13;13.30;83.40
39777;DHT22;25453;48.162;14.510;2022-10-31T04:03:05;13.30;83.30
39777;DHT22;25453;48.162;14.510;2022-10-31T04:05:36;13.20;83.40
39777;DHT22;25453;48.162;14.510;2022-10-31T04:08:08;13.20;83.50
39777;DHT22;25453;48.162;14.510;2022-10-31T04:10:44;13.30;83.50
39777;DHT22;25453;48.162;14.510;2022-10-31T04:13:27;13.30;83.50
39777;DHT22;25453;48.162;14.510;2022-10-31T04:16:02;13.30;83.40
39777;DHT22;25453;48.162;14.510;2022-10-31T04:18:30;13.30;83.40
39777;DHT22;25453;48.162;14.510;2022-10-31T04:21:06;13.30;83.20
39777;DHT22;25453;48.162;14.510;2022-10-31T04:23:39;13.30;83.20
39777;DHT22;25453;48.162;14.510;2022-10-31T04:26:10;13.30;83.10
39777;DHT22;25453;48.162;14.510;2022-10-31T04:28:44;13.30;83.20
39777;DHT22;25453;48.162;14.510;2022-10-31T04:31:12;13.20;83.30
39777;DHT22;25453;48.162;14.510;2022-10-31T04:33:45;13.20;83.30
39777;DHT22;25453;48.162;14.510;2022-10-31T04:36:12;13.20;83.30
39777;DHT22;25453;48.162;14.510;2022-10-31T04:38:46;13.20;83.40
39777;DHT22;25453;48.162;14.510;2022-10-31T04:41:13;13.20;83.30
39777;DHT22;25453;48.162;14.510;2022-10-31T04:43:47;13.20;83.20
39777;DHT22;25453;48.162;14.510;2022-10-31T04:46:21;13.20;83.20
39777;DHT22;25453;48.162;14.510;2022-10-31T04:48:49;13.20;83.20
39777;DHT22;25453;48.162;14.510;2022-10-31T04:51:22;13.10;83.20
39777;DHT22;25453;48.162;14.510;2022-10-31T04:53:49;13.20;83.30
39777;DHT22;25453;48.162;14.510;2022-10-31T04:56:23;13.10;83.30
39777;DHT22;25453;48.162;14.510;2022-10-31T04:59:04;13.20;83.40
39777;DHT22;25453;48.162;14.510;2022-10-31T05:01:37;13.20;83.50
39777;DHT22;25453;48.162;14.510;2022-10-31T05:04:08;13.20;83.50
39777;DHT22;25453;48.162;14.510;2022-10-31T05:06:41;13.30;83.40
39777;DHT22;25453;48.162;14.510;2022-10-31T05:09:15;13.30;83.30
39777;DHT22;25453;48.162;14.510;2022-10-31T05:11:42;13.30;83.20
39777;DHT22;25453;48.162;14.510;2022-10-31T05:14:09;13.30;83.10
39777;DHT22;25453;48.162;14.510;2022-10-31T05:16:43;13.30;82.90
39777;DHT22;25453;48.162;14.510;2022-10-31T05:19:10;13.30;82.90
39777;DHT22;25453;48.162;14.510;2022-10-31T05:21:44;13.20;83.10
39777;DHT22;25453;48.162;14.510;2022-10-31T05:24:11;13.20;83.10
39777;DHT22;25453;48.162;14.510;2022-10-31T05:26:45;13.20;83.00
39777;DHT22;25453;48.162;14.510;2022-10-31T05:29:12;13.20;83.10
39777;DHT22;25453;48.162;14.510;2022-10-31T05:31:46;13.20;83.20
39777;DHT22;25453;48.162;14.510;2022-10-31T05:34:20;13.30;83.00
39777;DHT22;25453;48.162;14.510;2022-10-31T05:36:47;13.20;83.00
39777;DHT22;25453;48.162;14.510;2022-10-31T05:39:21;13.20;83.00
39777;DHT22;25453;48.162;14.510;2022-10-31T05:41:55;13.20;83.00
39777;DHT22;25453;48.162;14.510;2022-10-31T05:44:29;13.20;83.10
39777;DHT22;25453;48.162;14.510;2022-10-31T05:46:56;13.20;83.20
39777;DHT22;25453;48.162;14.510;2022-10-31T05:49:30;13.20;83.10
39777;DHT22;25453;48.162;14.510;2022-10-31T05:52:04;13.20;83.10
39777;DHT22;25453;48.162;14.510;2022-10-31T05:54:38;13.20;83.20
39777;DHT22;25453;48.162;14.510;2022-10-31T05:57:19;13.20;83.20
39777;DHT22;25453;48.162;14.510;2022-10-31T05:59:52;13.30;83.10
39777;DHT22;25453;48.162;14.510;2022-10-31T06:02:21;13.20;83.00
39777;DHT22;25453;48.162;14.510;2022-10-31T06:04:54;13.20;82.90
39777;DHT22;25453;48.162;14.510;2022-10-31T06:07:22;13.20;82.90
39777;DHT22;25453;48.162;14.510;2022-10-31T06:09:55;13.20;82.90
39777;DHT22;25453;48.162;14.510;2022-10-31T06:12:29;13.10;82.80
39777;DHT22;25453;48.162;14.510;2022-10-31T06:14:56;13.10;82.60
39777;DHT22;25453;48.162;14.510;2022-10-31T06:17:30;13.00;82.60
39777;DHT22;25453;48.162;14.510;2022-10-31T06:20:06;13.00;82.70
39777;DHT22;25453;48.162;14.510;2022-10-31T06:22:33;12.90;82.80
39777;DHT22;25453;48.162;14.510;2022-10-31T06:25:07;12.90;82.90
39777;DHT22;25453;48.162;14.510;2022-10-31T06:27:41;12.90;82.90
39777;DHT22;25453;48.162;14.510;2022-10-31T06:30:15;12.90;82.90
39777;DHT22;25453;48.162;14.510;2022-10-31T06:32:49;12.90;83.10
39777;DHT22;25453;48.162;14.510;2022-10-31T06:35:24;12.90;83.10
39777;DHT22;25453;48.162;14.510;2022-10-31T06:37:57;12.90;83.10
39777;DHT22;25453;48.162;14.510;2022-10-31T06:40:25;12.90;83.10
39777;DHT22;25453;48.162;14.510;2022-10-31T06:42:59;13.00;83.20
39777;DHT22;25453;48.162;14.510;2022-10-31T06:45:34;13.00;83.00
39777;DHT22;25453;48.162;14.510;2022-10-31T06:48:07;13.00;82.90
39777;DHT22;25453;48.162;14.510;2022-10-31T06:50:43;13.00;83.00
39777;DHT22;25453;48.162;14.510;2022-10-31T06:53:11;13.10;83.10
39777;DHT22;25453;48.162;14.510;2022-10-31T06:55:44;13.10;83.10
39777;DHT22;25453;48.162;14.510;2022-10-31T06:58:32;13.10;83.10
39777;DHT22;25453;48.162;14.510;2022-10-31T07:01:05;13.20;83.00
39777;DHT22;25453;48.162;14.510;2022-10-31T07:03:39;13.20;82.60
39777;DHT22;25453;48.162;14.510;2022-10-31T07:06:13;13.10;82.60
39777;DHT22;25453;48.162;14.510;2022-10-31T07:08:40;13.10;82.60
39777;DHT22;25453;48.162;14.510;2022-10-31T07:11:14;13.20;82.80
39777;DHT22;25453;48.162;14.510;2022-10-31T07:13:48;13.20;82.80
39777;DHT22;25453;48.162;14.510;2022-10-31T07:16:15;13.20;82.80
39777;DHT22;25453;48.162;14.510;2022-10-31T07:18:49;13.20;82.40
39777;DHT22;25453;48.162;14.510;2022-10-31T07:21:23;13.20;82.30
39777;DHT22;25453;48.162;14.510;2022-10-31T07:24:00;13.20;82.30
39777;DHT22;25453;48.162;14.510;2022-10-31T07:26:27;13.10;82.40
39777;DHT22;25453;48.162;14.510;2022-10-31T07:29:01;13.20;82.60
39777;DHT22;25453;48.162;14.510;2022-10-31T07:31:35;13.20;82.40
39777;DHT22;25453;48.162;14.510;2022-10-31T07:34:09;13.20;82.20
39777;DHT22;25453;48.162;14.510;2022-10-31T07:36:43;13.10;82.30
39777;DHT22;25453;48.162;14.510;2022-10-31T07:39:10;13.10;82.40
39777;DHT22;25453;48.162;14.510;2022-10-31T07:41:44;13.20;82.60
39777;DHT22;25453;48.162;14.510;2022-10-31T07:44:11;13.20;82.40
39777;DHT22;25453;48.162;14.510;2022-10-31T07:46:45;13.20;82.30
39777;DHT22;25453;48.162;14.510;2022-10-31T07:49:12;13.20;82.30
39777;DHT22;25453;48.162;14.510;2022-10-31T07:51:46;13.20;82.30
39777;DHT22;25453;48.162;14.510;2022-10-31T07:54:20;13.20;82.20
39777;DHT22;25453;48.162;14.510;2022-10-31T07:56:48;13.20;82.20
39777;DHT22;25453;48.162;14.510;2022-10-31T07:59:28;13.30;82.30
39777;DHT22;25453;48.162;14.510;2022-10-31T08:02:02;13.30;82.30
39777;DHT22;25453;48.162;14.510;2022-10-31T08:04:29;13.30;82.30
39777;DHT22;25453;48.162;14.510;2022-10-31T08:07:03;13.30;82.10
39777;DHT22;25453;48.162;14.510;2022-10-31T08:09:37;13.30;81.90
39777;DHT22;25453;48.162;14.510;2022-10-31T08:12:11;13.30;82.00
39777;DHT22;25453;48.162;14.510;2022-10-31T08:14:45;13.30;82.00
39777;DHT22;25453;48.162;14.510;2022-10-31T08:17:19;13.30;82.10
39777;DHT22;25453;48.162;14.510;2022-10-31T08:19:53;13.30;82.00
39777;DHT22;25453;48.162;14.510;2022-10-31T08:22:20;13.30;82.10
39777;DHT22;25453;48.162;14.510;2022-10-31T08:24:47;13.30;82.10
39777;DHT22;25453;48.162;14.510;2022-10-31T08:27:21;13.30;82.00
39777;DHT22;25453;48.162;14.510;2022-10-31T08:29:48;13.30;82.00
39777;DHT22;25453;48.162;14.510;2022-10-31T08:32:15;13.30;81.90
39777;DHT22;25453;48.162;14.510;2022-10-31T08:34:49;13.30;81.90
39777;DHT22;25453;48.162;14.510;2022-10-31T08:37:16;13.30;82.00
39777;DHT22;25453;48.162;14.510;2022-10-31T08:39:53;13.30;82.10
39777;DHT22;25453;48.162;14.510;2022-10-31T08:42:20;13.30;82.20
39777;DHT22;25453;48.162;14.510;2022-10-31T08:44:54;13.30;82.00
39777;DHT22;25453;48.162;14.510;2022-10-31T08:47:21;13.30;82.10
39777;DHT22;25453;48.162;14.510;2022-10-31T08:49:55;13.40;82.20
39777;DHT22;25453;48.162;14.510;2022-10-31T08:52:23;13.40;82.20
39777;DHT22;25453;48.162;14.510;2022-10-31T08:55:11;13.40;82.40
39777;DHT22;25453;48.162;14.510;2022-10-31T08:57:58;13.50;82.50
39777;DHT22;25453;48.162;14.510;2022-10-31T09:00:26;13.50;82.40
39777;DHT22;25453;48.162;14.510;2022-10-31T09:03:03;13.60;82.40
39777;DHT22;25453;48.162;14.510;2022-10-31T09:05:30;13.60;82.40
39777;DHT22;25453;48.162;14.510;2022-10-31T09:08:05;13.70;82.40
39777;DHT22;25453;48.162;14.510;2022-10-31T09:10:39;13.70;82.30
39777;DHT22;25453;48.162;14.510;2022-10-31T09:13:16;13.70;82.30
39777;DHT22;25453;48.162;14.510;2022-10-31T09:15:45;13.70;82.20
39777;DHT22;25453;48.162;14.510;2022-10-31T09:18:22;13.70;82.10
39777;DHT22;25453;48.162;14.510;2022-10-31T09:20:58;13.70;82.20
39777;DHT22;25453;48.162;14.510;2022-10-31T09:23:25;13.70;82.40
39777;DHT22;25453;48.162;14.510;2022-10-31T09:26:00;13.70;82.50
39777;DHT22;25453;48.162;14.510;2022-10-31T09:28:28;13.70;82.40
39777;DHT22;25453;48.162;14.510;2022-10-31T09:30:55;13.80;82.40
39777;DHT22;25453;48.162;14.510;2022-10-31T09:33:28;13.80;82.30
39777;DHT22;25453;48.162;14.510;2022-10-31T09:35:58;13.80;82.40
39777;DHT22;25453;48.162;14.510;2022-10-31T09:38:32;13.80;82.40
39777;DHT22;25453;48.162;14.510;2022-10-31T09:52:09;13.90;82.30
39777;DHT22;25453;48.162;14.510;2022-10-31T09:55:12;13.90;82.30
39777;DHT22;25453;48.162;14.510;2022-10-31T09:57:48;13.90;82.30
39777;DHT22;25453;48.162;14.510;2022-10-31T10:00:28;13.90;82.40
39777;DHT22;25453;48.162;14.510;2022-10-31T10:03:12;13.90;82.50
39777;DHT22;25453;48.162;14.510;2022-10-31T10:05:56;14.00;82.50
39777;DHT22;25453;48.162;14.510;2022-10-31T10:08:30;14.00;82.40
39777;DHT22;25453;48.162;14.510;2022-10-31T10:25:39;14.00;82.70
39777;DHT22;25453;48.162;14.510;2022-10-31T10:31:00;14.10;82.80
39777;DHT22;25453;48.162;14.510;2022-10-31T10:33:55;14.20;82.80
39777;DHT22;25453;48.162;14.510;2022-10-31T10:36:41;14.30;82.80
39777;DHT22;25453;48.162;14.510;2022-10-31T10:39:20;14.30;82.70
39777;DHT22;25453;48.162;14.510;2022-10-31T10:41:50;14.40;82.70
39777;DHT22;25453;48.162;14.510;2022-10-31T10:44:47;14.40;82.60
39777;DHT22;25453;48.162;14.510;2022-10-31T10:47:41;14.40;82.30
39777;DHT22;25453;48.162;14.510;2022-10-31T10:50:20;14.40;82.30
39777;DHT22;25453;48.162;14.510;2022-10-31T10:58:51;14.40;82.30
39777;DHT22;25453;48.162;14.510;2022-10-31T11:01:19;14.40;82.30
39777;DHT22;25453;48.162;14.510;2022-10-31T11:03:52;14.40;82.20
39777;DHT22;25453;48.162;14.510;2022-10-31T11:06:23;14.40;82.30
39777;DHT22;25453;48.162;14.510;2022-10-31T11:09:08;14.40;82.30
39777;DHT22;25453;48.162;14.510;2022-10-31T11:11:38;14.50;82.30
39777;DHT22;25453;48.162;14.510;2022-10-31T11:14:14;14.50;82.30
39777;DHT22;25453;48.162;14.510;2022-10-31T11:16:47;14.50;82.40
39777;DHT22;25453;48.162;14.510;2022-10-31T11:19:25;14.50;82.20
39777;DHT22;25453;48.162;14.510;2022-10-31T11:22:13;14.50;81.70
39777;DHT22;25453;48.162;14.510;2022-10-31T11:24:48;14.50;81.70
39777;DHT22;25453;48.162;14.510;2022-10-31T11:27:20;14.50;81.90
39777;DHT22;25453;48.162;14.510;2022-10-31T11:30:04;14.40;82.10
39777;DHT22;25453;48.162;14.510;2022-10-31T11:32:31;14.50;82.00
39777;DHT22;25453;48.162;14.510;2022-10-31T11:35:09;14.50;81.90
39777;DHT22;25453;48.162;14.510;2022-10-31T11:37:44;14.40;82.10
39777;DHT22;25453;48.162;14.510;2022-10-31T11:40:24;14.50;82.30
39777;DHT22;25453;48.162;14.510;2022-10-31T11:42:54;14.50;82.50
39777;DHT22;25453;48.162;14.510;2022-10-31T11:45:31;14.50;82.50
39777;DHT22;25453;48.162;14.510;2022-10-31T11:48:01;14.60;82.50
39777;DHT22;25453;48.162;14.510;2022-10-31T11:50:41;14.70;82.50
39777;DHT22;25453;48.162;14.510;2022-10-31T11:53:20;14.70;82.30
39777;DHT22;25453;48.162;14.510;2022-10-31T11:56:13;14.80;82.40
39777;DHT22;25453;48.162;14.510;2022-10-31T11:58:55;14.80;82.30
39777;DHT22;25453;48.162;14.510;2022-10-31T12:01:32;14.80;82.30
39777;DHT22;25453;48.162;14.510;2022-10-31T12:04:06;14.80;82.40
39777;DHT22;25453;48.162;14.510;2022-10-31T12:06:43;14.90;82.30
39777;DHT22;25453;48.162;14.510;2022-10-31T12:15:00;14.90;82.40
39777;DHT22;25453;48.162;14.510;2022-10-31T12:17:46;15.00;82.30
39777;DHT22;25453;48.162;14.510;2022-10-31T12:32:29;15.10;82.30
39777;DHT22;25453;48.162;14.510;2022-10-31T12:35:21;15.10;82.40
39777;DHT22;25453;48.162;14.510;2022-10-31T12:38:06;15.10;82.40
39777;DHT22;25453;48.162;14.510;2022-10-31T12:43:46;15.20;82.40
39777;DHT22;25453;48.162;14.510;2022-10-31T12:46:49;15.20;82.40
39777;DHT22;25453;48.162;14.510;2022-10-31T12:49:33;15.20;82.40
39777;DHT22;25453;48.162;14.510;2022-10-31T12:52:10;15.20;82.50
39777;DHT22;25453;48.162;14.510;2022-10-31T12:55:09;15.30;82.60
39777;DHT22;25453;48.162;14.510;2022-10-31T12:57:50;15.30;82.60
39777;DHT22;25453;48.162;14.510;2022-10-31T13:00:26;15.40;82.80
39777;DHT22;25453;48.162;14.510;2022-10-31T13:03:25;15.50;82.70
39777;DHT22;25453;48.162;14.510;2022-10-31T13:06:02;15.60;82.70
39777;DHT22;25453;48.162;14.510;2022-10-31T13:08:43;15.70;82.50
39777;DHT22;25453;48.162;14.510;2022-10-31T13:14:51;15.80;82.30
39777;DHT22;25453;48.162;14.510;2022-10-31T13:17:40;15.80;82.40
39777;DHT22;25453;48.162;14.510;2022-10-31T13:22:51;15.90;82.10
39777;DHT22;25453;48.162;14.510;2022-10-31T13:25:33;15.90;82.10
39777;DHT22;25453;48.162;14.510;2022-10-31T13:28:26;15.90;82.30
39777;DHT22;25453;48.162;14.510;2022-10-31T13:31:02;15.90;82.50
39777;DHT22;25453;48.162;14.510;2022-10-31T13:33:45;16.00;82.50
39777;DHT22;25453;48.162;14.510;2022-10-31T13:39:32;16.00;82.50
39777;DHT22;25453;48.162;14.510;2022-10-31T13:42:15;16.10;82.40
39777;DHT22;25453;48.162;14.510;2022-10-31T13:44:44;16.00;82.40
39777;DHT22;25453;48.162;14.510;2022-10-31T13:47:29;16.00;82.40
39777;DHT22;25453;48.162;14.510;2022-10-31T13:50:19;16.00;82.40
39777;DHT22;25453;48.162;14.510;2022-10-31T13:55:46;16.00;82.40
39777;DHT22;25453;48.162;14.510;2022-10-31T13:58:30;16.00;82.40
39777;DHT22;25453;48.162;14.510;2022-10-31T14:01:18;16.00;82.50
39777;DHT22;25453;48.162;14.510;2022-10-31T14:04:22;16.00;82.40
39777;DHT22;25453;48.162;14.510;2022-10-31T14:07:09;16.00;82.50
39777;DHT22;25453;48.162;14.510;2022-10-31T14:10:06;15.90;82.50
39777;DHT22;25453;48.162;14.510;2022-10-31T14:15:38;15.90;82.70
39777;DHT22;25453;48.162;14.510;2022-10-31T14:18:24;15.90;82.70
39777;DHT22;25453;48.162;14.510;2022-10-31T14:20:58;15.90;82.70
39777;DHT22;25453;48.162;14.510;2022-10-31T14:23:39;15.80;82.70
39777;DHT22;25453;48.162;14.510;2022-10-31T14:32:06;15.80;82.80
39777;DHT22;25453;48.162;14.510;2022-10-31T14:34:52;15.80;82.80
39777;DHT22;25453;48.162;14.510;2022-10-31T14:40:23;15.70;82.80
39777;DHT22;25453;48.162;14.510;2022-10-31T14:51:02;15.60;82.30
39777;DHT22;25453;48.162;14.510;2022-10-31T14:53:49;15.60;82.30
39777;DHT22;25453;48.162;14.510;2022-10-31T14:56:30;15.50;82.40
39777;DHT22;25453;48.162;14.510;2022-10-31T14:59:13;15.50;82.20
39777;DHT22;25453;48.162;14.510;2022-10-31T15:02:15;15.40;82.20
39777;DHT22;25453;48.162;14.510;2022-10-31T15:04:51;15.30;82.20
39777;DHT22;25453;48.162;14.510;2022-10-31T15:07:25;15.30;82.20
39777;DHT22;25453;48.162;14.510;2022-10-31T15:10:29;15.20;82.10
39777;DHT22;25453;48.162;14.510;2022-10-31T15:13:18;15.20;82.20
39777;DHT22;25453;48.162;14.510;2022-10-31T15:15:46;15.10;82.30
39777;DHT22;25453;48.162;14.510;2022-10-31T15:18:23;15.10;82.30
39777;DHT22;25453;48.162;14.510;2022-10-31T15:20:57;15.10;82.40
39777;DHT22;25453;48.162;14.510;2022-10-31T15:23:27;15.00;82.40
39777;DHT22;25453;48.162;14.510;2022-10-31T15:26:03;15.00;82.40
39777;DHT22;25453;48.162;14.510;2022-10-31T15:28:32;15.00;82.40
39777;DHT22;25453;48.162;14.510;2022-10-31T15:31:12;15.00;82.50
39777;DHT22;25453;48.162;14.510;2022-10-31T15:33:41;14.90;82.50
39777;DHT22;25453;48.162;14.510;2022-10-31T15:36:22;14.90;82.50
39777;DHT22;25453;48.162;14.510;2022-10-31T15:39:00;14.80;82.60
39777;DHT22;25453;48.162;14.510;2022-10-31T15:41:51;14.80;82.60
39777;DHT22;25453;48.162;14.510;2022-10-31T15:44:32;14.80;82.70
39777;DHT22;25453;48.162;14.510;2022-10-31T15:47:02;14.70;82.60
39777;DHT22;25453;48.162;14.510;2022-10-31T15:49:49;14.70;82.70
39777;DHT22;25453;48.162;14.510;2022-10-31T15:55:22;14.60;82.90
39777;DHT22;25453;48.162;14.510;2022-10-31T15:58:09;14.60;82.80
39777;DHT22;25453;48.162;14.510;2022-10-31T16:01:19;14.50;83.00
39777;DHT22;25453;48.162;14.510;2022-10-31T16:04:00;14.50;83.10
39777;DHT22;25453;48.162;14.510;2022-10-31T16:06:27;14.50;83.10
39777;DHT22;25453;48.162;14.510;2022-10-31T16:09:02;14.40;83.10
39777;DHT22;25453;48.162;14.510;2022-10-31T16:11:38;14.40;83.20
39777;DHT22;25453;48.162;14.510;2022-10-31T16:14:15;14.40;83.20
39777;DHT22;25453;48.162;14.510;2022-10-31T16:16:54;14.40;83.50
39777;DHT22;25453;48.162;14.510;2022-10-31T16:19:29;14.40;83.50
39777;DHT22;25453;48.162;14.510;2022-10-31T16:22:13;14.30;83.60
39777;DHT22;25453;48.162;14.510;2022-10-31T16:27:27;14.30;83.40
39777;DHT22;25453;48.162;14.510;2022-10-31T16:29:57;14.20;83.20
39777;DHT22;25453;48.162;14.510;2022-10-31T16:32:50;14.10;83.30
39777;DHT22;25453;48.162;14.510;2022-10-31T16:35:36;14.10;83.50
39777;DHT22;25453;48.162;14.510;2022-10-31T16:38:10;14.10;83.60
39777;DHT22;25453;48.162;14.510;2022-10-31T16:40:38;14.10;83.50
39777;DHT22;25453;48.162;14.510;2022-10-31T16:43:14;14.00;83.50
39777;DHT22;25453;48.162;14.510;2022-10-31T16:45:47;14.00;83.50
39777;DHT22;25453;48.162;14.510;2022-10-31T16:48:21;13.90;83.40
39777;DHT22;25453;48.162;14.510;2022-10-31T16:50:50;13.90;83.70
39777;DHT22;25453;48.162;14.510;2022-10-31T16:53:25;13.90;83.80
39777;DHT22;25453;48.162;14.510;2022-10-31T16:55:56;13.80;83.80
39777;DHT22;25453;48.162;14.510;2022-10-31T16:58:37;13.80;83.90
39777;DHT22;25453;48.162;14.510;2022-10-31T17:01:06;13.80;83.90
39777;DHT22;25453;48.162;14.510;2022-10-31T17:03:40;13.80;84.10
39777;DHT22;25453;48.162;14.510;2022-10-31T17:06:11;13.80;83.80
39777;DHT22;25453;48.162;14.510;2022-10-31T17:08:45;13.70;83.80
39777;DHT22;25453;48.162;14.510;2022-10-31T17:11:22;13.70;84.00
39777;DHT22;25453;48.162;14.510;2022-10-31T17:13:56;13.70;84.10
39777;DHT22;25453;48.162;14.510;2022-10-31T17:16:31;13.70;84.30
39777;DHT22;25453;48.162;14.510;2022-10-31T17:18:58;13.70;84.40
39777;DHT22;25453;48.162;14.510;2022-10-31T17:21:31;13.70;84.30
39777;DHT22;25453;48.162;14.510;2022-10-31T17:24:06;13.70;84.30
39777;DHT22;25453;48.162;14.510;2022-10-31T17:26:34;13.70;84.20
39777;DHT22;25453;48.162;14.510;2022-10-31T17:29:08;13.70;84.10
39777;DHT22;25453;48.162;14.510;2022-10-31T17:31:42;13.70;84.00
39777;DHT22;25453;48.162;14.510;2022-10-31T17:34:16;13.70;83.80
39777;DHT22;25453;48.162;14.510;2022-10-31T17:36:49;13.60;83.90
39777;DHT22;25453;48.162;14.510;2022-10-31T17:39:23;13.60;84.00
39777;DHT22;25453;48.162;14.510;2022-10-31T17:41:57;13.60;84.10
39777;DHT22;25453;48.162;14.510;2022-10-31T17:44:31;13.60;84.20
39777;DHT22;25453;48.162;14.510;2022-10-31T17:46:58;13.60;84.20
39777;DHT22;25453;48.162;14.510;2022-10-31T17:49:32;13.60;84.20
39777;DHT22;25453;48.162;14.510;2022-10-31T17:52:06;13.60;84.20
39777;DHT22;25453;48.162;14.510;2022-10-31T17:54:40;13.60;84.30
39777;DHT22;25453;48.162;14.510;2022-10-31T17:57:08;13.60;84.20
39777;DHT22;25453;48.162;14.510;2022-10-31T17:59:42;13.60;84.20
39777;DHT22;25453;48.162;14.510;2022-10-31T18:02:15;13.70;84.20
39777;DHT22;25453;48.162;14.510;2022-10-31T18:04:50;13.70;84.30
39777;DHT22;25453;48.162;14.510;2022-10-31T18:07:23;13.70;84.10
39777;DHT22;25453;48.162;14.510;2022-10-31T18:09:51;13.70;83.90
39777;DHT22;25453;48.162;14.510;2022-10-31T18:12:25;13.60;84.00